Main page
METAR-TAF:

METAR-TAF

Airports :

Split Airport

Split, Croatia

latitude: 43-32N, longitude: 016-18E, elevation: 19 m

Current weather observation

The report was made 33 minutes ago, at 08:30 UTC
Wind 3 kt from the East, varying between North/Northeast and Southeast
Temperature 27°C
Humidity 51%
Pressure 1016 hPa
Visibility 10 km or more
no clouds below 1500 m and no cumulonimbus

METAR: LDSP 210830Z 09003KT 020V140 CAVOK 27/16 Q1016 NOSIG

Time: 11:03 (09:03 UTC)

Forecast

The report was made 3 hours and 38 minutes ago, at 05:25 UTC
Forecast valid from 21 at 06 UTC to 22 at 06 UTC
Wind 2 kt from variable directions
Visibility 10 km or more
no clouds below 1500 m and no cumulonimbus
Becoming
from 21 at 11 UTC to 21 at 13 UTC
Wind 7 kt from the Southwest
Becoming
from 21 at 15 UTC to 21 at 17 UTC
Wind 2 kt from variable directions

TAF: LDSP 210525Z 2106/2206 VRB02KT CAVOK TX27/2113Z TN21/2204Z BECMG 2111/2113 23007KT BECMG 2115/2117 VRB02KT

Weather observations and forecasts of more than 4000 airports (METAR and TAF reports).

The available stations are represented by yellow and red dots on the map.

Hover mouse over dot to see the name of the station.

Then click to see weather observations and forecasts.

To change the map : click on the green buttons with a black cross to zoom in, on the green button with a dash to zoom out, or on the green arrows for adjacent maps.


METAR-TAF: